Time;durP1;ratioP1;P1;durP2;ratioP2;P2;SDS_P1;SDS_P2;PMS_P1;PMS_P2;Temp;Humidity;BMP_temperature;BMP_pressure;BME280_temperature;BME280_humidity;BME280_pressure;Samples;Min_cycle;Max_cycle;Signal;HPM_P1;HPM_P2
2021/01/05 00:00:26;;;;;;;10.95;6.63;;;;;;;3.19;47.61;101139.16;5029815;28;20049;-69
2021/01/05 00:02:54;;;;;;;9.93;6.25;;;;;;;3.19;47.39;101129.22;5030005;28;20499;-69
2021/01/05 00:05:22;;;;;;;10.63;6.28;;;;;;;3.20;47.22;101127.41;5029273;28;20124;-70
2021/01/05 00:07:50;;;;;;;10.15;6.35;;;;;;;3.17;47.25;101128.41;5026901;28;20381;-70
2021/01/05 00:10:18;;;;;;;8.73;6.22;;;;;;;3.18;47.30;101124.78;5029995;28;20112;-70
2021/01/05 00:12:45;;;;;;;10.52;6.40;;;;;;;3.18;47.19;101121.19;5029845;28;20099;-70
2021/01/05 00:15:15;;;;;;;10.52;6.68;;;;;;;3.16;47.35;101128.50;5031063;28;20057;-70
2021/01/05 00:17:42;;;;;;;8.80;5.70;;;;;;;3.16;47.39;101123.97;5025821;28;20485;-70
2021/01/05 00:20:20;;;;;;;9.07;6.00;;;;;;;3.17;47.30;101123.00;5021012;28;20049;-70
2021/01/05 00:22:47;;;;;;;10.80;6.78;;;;;;;3.14;47.66;101130.41;5043394;28;20048;-70
2021/01/05 00:25:17;;;;;;;10.13;6.30;;;;;;;3.16;47.28;101131.19;5029715;28;20500;-69
2021/01/05 00:27:45;;;;;;;9.27;6.15;;;;;;;3.11;47.54;101126.03;5030441;28;20534;-69
2021/01/05 00:30:15;;;;;;;10.65;6.40;;;;;;;3.13;47.54;101132.22;5029604;28;20041;-70
2021/01/05 00:32:45;;;;;;;9.15;5.72;;;;;;;3.14;47.52;101122.28;5030918;28;20053;-70
2021/01/05 00:35:17;;;;;;;9.25;5.18;;;;;;;3.15;47.43;101130.31;5027095;28;20033;-70
2021/01/05 00:37:47;;;;;;;9.43;6.10;;;;;;;3.12;47.34;101125.09;5029583;28;20436;-70
2021/01/05 00:40:16;;;;;;;10.55;6.00;;;;;;;3.15;47.36;101122.22;5030187;28;20041;-69
2021/01/05 00:42:44;;;;;;;10.55;6.22;;;;;;;3.16;47.47;101123.09;5033341;28;20068;-70
2021/01/05 00:45:17;;;;;;;10.02;5.90;;;;;;;3.18;47.61;101119.38;5031174;28;20049;-70
2021/01/05 00:47:45;;;;;;;11.27;6.47;;;;;;;3.14;47.73;101123.16;5034570;28;20048;-70
2021/01/05 00:50:13;;;;;;;10.50;6.38;;;;;;;3.18;47.47;101126.59;5033031;28;20033;-70
2021/01/05 00:52:41;;;;;;;11.43;7.28;;;;;;;3.15;47.72;101129.44;5032130;28;20116;-70
2021/01/05 00:55:11;;;;;;;12.27;6.95;;;;;;;3.16;47.64;101129.38;5033926;28;20132;-70
2021/01/05 00:57:42;;;;;;;;;;;;;;;2.94;48.03;101131.44;5049844;28;20044;-70
2021/01/05 01:00:13;;;;;;;11.27;6.30;;;;;;;3.13;47.66;101131.34;5041790;28;19939;-70
2021/01/05 01:02:40;;;;;;;11.95;6.80;;;;;;;3.13;47.69;101126.81;5033783;28;20412;-70
2021/01/05 01:05:09;;;;;;;10.70;6.28;;;;;;;3.16;47.42;101126.66;5050182;28;20526;-70
2021/01/05 01:07:38;;;;;;;11.07;6.15;;;;;;;3.17;47.71;101127.53;5030607;28;20404;-70
2021/01/05 01:10:07;;;;;;;11.00;6.75;;;;;;;3.16;47.48;101120.38;5037566;28;20049;-70
2021/01/05 01:12:34;;;;;;;10.70;6.13;;;;;;;3.16;47.62;101133.91;5024218;28;20069;-70
2021/01/05 01:15:01;;;;;;;12.05;6.90;;;;;;;3.16;47.59;101132.06;5028461;28;20037;-70
2021/01/05 01:17:30;;;;;;;11.68;7.00;;;;;;;3.16;47.50;101134.78;5030064;28;20060;-70
2021/01/05 01:19:58;;;;;;;11.27;6.30;;;;;;;3.18;47.66;101132.88;5040290;28;20037;-70
2021/01/05 01:22:27;;;;;;;11.50;6.68;;;;;;;3.16;47.56;101123.97;5037129;28;20030;-70
2021/01/05 01:25:08;;;;;;;10.75;5.95;;;;;;;3.18;47.52;101127.47;5042517;28;20056;-70
2021/01/05 01:27:38;;;;;;;10.98;6.47;;;;;;;3.16;47.66;101123.97;5033998;28;20103;-70
2021/01/05 01:30:08;;;;;;;12.93;6.85;;;;;;;3.20;47.29;101138.22;5031970;28;20115;-70
2021/01/05 01:32:47;;;;;;;10.88;6.78;;;;;;;3.17;47.70;101131.13;5033061;28;20034;-70
2021/01/05 01:35:16;;;;;;;12.93;7.43;;;;;;;3.20;47.55;101143.63;5033610;28;20080;-70
2021/01/05 01:37:46;;;;;;;11.63;6.82;;;;;;;3.19;47.55;101134.63;5033356;28;20038;-70
2021/01/05 01:40:25;;;;;;;11.25;6.40;;;;;;;3.21;47.47;101134.53;5031520;28;20124;-68
2021/01/05 01:42:53;;;;;;;11.98;6.80;;;;;;;3.20;47.45;101141.78;5049220;28;20033;-69
2021/01/05 01:45:24;;;;;;;13.10;7.22;;;;;;;3.21;47.44;101134.53;5030719;28;20483;-70
2021/01/05 01:47:55;;;;;;;12.88;6.72;;;;;;;3.19;47.57;101131.94;5045553;28;20120;-69
2021/01/05 01:50:25;;;;;;;13.50;7.40;;;;;;;3.22;47.65;101130.88;5046561;28;20045;-69
2021/01/05 01:53:39;;;;;;;12.45;6.80;;;;;;;3.16;47.53;101128.50;5031623;28;20121;-69
2021/01/05 01:56:27;;;;;;;12.63;6.80;;;;;;;3.17;47.70;101133.81;4936337;28;20099;-69
2021/01/05 01:59:24;;;;;;;11.75;7.40;;;;;;;3.17;47.38;101130.25;5047954;28;20038;-69
2021/01/05 02:01:59;;;;;;;11.10;6.50;;;;;;;3.16;47.66;101133.91;5031844;28;20132;-69
2021/01/05 02:04:44;;;;;;;11.85;6.43;;;;;;;3.18;47.67;101127.47;5047239;28;20053;-69
2021/01/05 02:07:42;;;;;;;13.20;7.00;;;;;;;3.17;47.45;101130.25;5032658;28;20041;-69
2021/01/05 02:10:35;;;;;;;9.93;6.55;;;;;;;3.17;47.51;101135.66;5031578;28;20045;-69
2021/01/05 02:13:20;;;;;;;10.93;5.95;;;;;;;3.15;47.59;101127.63;5028994;28;20029;-69
2021/01/05 02:16:06;;;;;;;12.65;6.47;;;;;;;3.15;47.34;101135.72;5021920;28;20058;-69
2021/01/05 02:18:47;;;;;;;11.93;7.10;;;;;;;3.17;47.51;101141.06;5041053;28;20057;-69
2021/01/05 02:21:23;;;;;;;12.10;6.85;;;;;;;3.15;47.75;101127.63;5031117;28;20424;-69
2021/01/05 02:24:16;;;;;;;12.95;7.45;;;;;;;3.14;47.58;101128.56;5041172;28;20080;-69
2021/01/05 02:26:54;;;;;;;12.43;7.15;;;;;;;3.13;47.37;101134.03;5047294;28;20081;-69
2021/01/05 02:29:26;;;;;;;11.80;7.18;;;;;;;3.13;47.68;101131.34;5029762;28;20045;-68
2021/01/05 02:32:12;;;;;;;10.90;6.95;;;;;;;3.15;47.62;101127.63;5029989;28;20436;-69
2021/01/05 02:35:10;;;;;;;12.88;7.03;;;;;;;3.13;47.58;101132.22;5031181;28;20045;-69
2021/01/05 02:38:07;;;;;;;11.57;6.40;;;;;;;3.13;47.71;101129.50;5025045;28;20409;-69
2021/01/05 02:41:14;;;;;;;11.25;6.45;;;;;;;3.12;47.36;101118.81;5027163;28;20123;-69
2021/01/05 02:44:25;;;;;;;12.73;6.30;;;;;;;3.12;47.90;101126.91;5028077;28;20511;-69
2021/01/05 02:47:24;;;;;;;12.50;7.18;;;;;;;3.09;47.67;101130.66;5026466;28;20508;-69
2021/01/05 02:50:22;;;;;;;12.80;6.88;;;;;;;3.08;47.49;101130.72;5028015;28;20052;-69
2021/01/05 02:53:42;;;;;;;14.30;7.40;;;;;;;3.09;47.66;101133.34;5031122;28;20480;-69
2021/01/05 02:56:55;;;;;;;12.25;6.95;;;;;;;3.06;47.47;101128.09;5027347;28;20037;-69
2021/01/05 03:00:00;;;;;;;;;;;;;;;2.82;47.97;101121.22;5032160;28;20128;-69
2021/01/05 03:03:25;;;;;;;11.75;6.50;;;;;;;2.98;47.85;101113.22;5031173;28;20368;-69
2021/01/05 03:06:28;;;;;;;10.90;5.95;;;;;;;3.04;47.66;101118.31;5030980;28;20037;-69
2021/01/05 03:09:49;;;;;;;10.73;6.65;;;;;;;3.03;47.80;101112.03;5027716;28;20034;-69
2021/01/05 03:12:46;;;;;;;11.27;6.22;;;;;;;3.05;47.65;101126.31;5015044;28;20049;-69
2021/01/05 03:15:43;;;;;;;12.55;6.85;;;;;;;3.06;47.76;101119.09;5002756;28;20057;-69
2021/01/05 03:18:43;;;;;;;11.25;6.38;;;;;;;3.06;47.81;101121.81;5026026;28;20696;-70
2021/01/05 03:21:33;;;;;;;11.52;6.43;;;;;;;3.09;47.94;101122.53;5032825;28;20492;-69
2021/01/05 03:24:21;;;;;;;12.93;6.80;;;;;;;3.10;47.91;101123.41;5028873;28;20070;-69
2021/01/05 03:27:10;;;;;;;12.35;6.82;;;;;;;3.11;47.90;101126.03;5031024;28;20036;-69
2021/01/05 03:29:59;;;;;;;11.35;6.63;;;;;;;3.10;47.78;101118.88;5026056;28;20048;-69
2021/01/05 03:32:45;;;;;;;11.77;6.72;;;;;;;3.10;47.59;101118.00;5031313;28;20532;-69
2021/01/05 03:35:32;;;;;;;11.73;7.90;;;;;;;3.09;47.63;101119.84;5028495;28;20044;-69
2021/01/05 03:38:19;;;;;;;10.43;6.07;;;;;;;3.10;47.44;101118.88;5030634;28;20045;-69
2021/01/05 03:41:04;;;;;;;13.07;7.32;;;;;;;3.09;47.47;101117.13;5031260;28;20052;-69
2021/01/05 03:43:50;;;;;;;11.93;6.30;;;;;;;3.10;47.40;101126.13;5031582;28;20048;-69
2021/01/05 03:46:36;;;;;;;11.50;6.40;;;;;;;3.09;47.66;101119.84;5028746;28;20400;-69
2021/01/05 03:49:22;;;;;;;10.50;6.43;;;;;;;3.09;47.72;101122.53;5026073;28;20065;-69
2021/01/05 03:52:08;;;;;;;11.38;6.65;;;;;;;3.08;47.54;101122.59;5030818;28;20052;-69
2021/01/05 03:54:54;;;;;;;12.82;6.93;;;;;;;3.06;47.55;101122.69;5028361;28;20041;-69
2021/01/05 03:57:40;;;;;;;13.10;7.90;;;;;;;3.04;47.77;101119.16;5026522;28;20128;-69
2021/01/05 04:00:26;;;;;;;12.10;6.80;;;;;;;3.04;47.45;101126.44;5029375;28;20381;-69
2021/01/05 04:02:59;;;;;;;;;;;;;;;2.83;48.25;101126.53;5045291;28;20508;-69
2021/01/05 04:05:28;;;;;;;10.45;5.75;;;;;;;3.02;47.64;101122.94;5026282;28;19965;-69
2021/01/05 04:07:56;;;;;;;12.30;7.15;;;;;;;3.05;47.55;101118.22;5038722;28;20076;-69
2021/01/05 04:10:24;;;;;;;11.73;7.15;;;;;;;3.04;47.59;101118.31;5028116;28;20452;-69
2021/01/05 04:13:11;;;;;;;12.10;7.25;;;;;;;3.03;47.52;101114.75;5030503;28;20516;-69
2021/01/05 04:15:58;;;;;;;13.13;6.85;;;;;;;3.03;47.77;101116.56;5034554;28;20562;-69
2021/01/05 04:18:46;;;;;;;12.00;7.13;;;;;;;3.03;47.56;101116.56;5036560;28;20053;-70
2021/01/05 04:21:16;;;;;;;13.25;7.15;;;;;;;3.02;47.57;101113.00;5037265;28;20033;-69
2021/01/05 04:24:05;;;;;;;12.80;7.65;;;;;;;3.02;47.51;101123.81;5036607;28;20463;-70
2021/01/05 04:26:33;;;;;;;12.48;6.72;;;;;;;3.06;47.57;101119.09;5037345;28;20492;-69
2021/01/05 04:29:01;;;;;;;12.50;6.75;;;;;;;3.06;47.46;101129.91;5035533;28;20072;-69
2021/01/05 04:31:35;;;;;;;11.75;6.10;;;;;;;3.07;47.77;101121.72;5052411;28;20133;-69
2021/01/05 04:34:03;;;;;;;11.85;6.05;;;;;;;3.05;47.58;101123.63;5036420;28;20053;-69
2021/01/05 04:36:32;;;;;;;13.40;7.60;;;;;;;3.07;47.69;101121.72;5037277;28;20041;-69
2021/01/05 04:38:59;;;;;;;14.07;7.60;;;;;;;3.08;47.64;101126.19;5035917;28;20045;-69
2021/01/05 04:41:33;;;;;;;12.35;7.00;;;;;;;3.09;47.78;101125.25;5030140;28;20388;-70
2021/01/05 04:44:04;;;;;;;12.55;7.25;;;;;;;3.08;47.42;101134.28;5035230;28;20045;-69
2021/01/05 04:46:46;;;;;;;13.63;7.47;;;;;;;3.10;47.81;101136.94;5037121;28;20107;-69
2021/01/05 04:49:38;;;;;;;14.35;7.13;;;;;;;3.10;47.58;101140.50;5025848;28;20049;-69
2021/01/05 04:52:10;;;;;;;12.75;6.93;;;;;;;3.08;47.57;101138.81;5035611;28;20045;-69
2021/01/05 04:54:44;;;;;;;11.93;6.88;;;;;;;3.08;47.46;101136.13;5036926;28;20041;-69
2021/01/05 04:57:22;;;;;;;12.65;7.20;;;;;;;3.11;47.60;101135.97;5029387;28;20443;-69
2021/01/05 04:59:54;;;;;;;12.45;7.05;;;;;;;3.10;47.83;101142.34;5052636;28;20132;-69
2021/01/05 05:02:43;;;;;;;12.38;6.88;;;;;;;3.11;47.68;101136.84;5036129;28;20038;-69
2021/01/05 05:05:29;;;;;;;14.57;7.28;;;;;;;3.11;47.63;101136.84;5036549;28;20073;-69
2021/01/05 05:08:21;;;;;;;13.80;7.57;;;;;;;3.11;47.63;101142.25;5035624;28;20091;-69
2021/01/05 05:10:53;;;;;;;13.13;6.70;;;;;;;3.11;47.69;101136.84;5036265;28;20044;-69
2021/01/05 05:13:31;;;;;;;13.45;6.57;;;;;;;3.13;47.75;101139.44;5032061;28;20049;-69
2021/01/05 05:16:16;;;;;;;15.93;8.05;;;;;;;3.14;47.52;101142.09;5030318;28;20494;-70
2021/01/05 05:19:01;;;;;;;13.45;6.25;;;;;;;3.14;47.57;101136.69;5033952;28;20132;-69
2021/01/05 05:21:34;;;;;;;13.90;7.93;;;;;;;3.11;47.50;101138.69;5040606;28;20069;-69
2021/01/05 05:24:19;;;;;;;10.67;6.30;;;;;;;3.10;47.89;101142.34;5051665;28;20507;-69
2021/01/05 05:26:57;;;;;;;12.52;6.63;;;;;;;3.12;47.74;101146.72;5033479;28;20054;-69
2021/01/05 05:29:45;;;;;;;13.00;6.82;;;;;;;3.13;47.59;101151.13;5028364;28;20062;-69
2021/01/05 05:32:33;;;;;;;13.38;7.05;;;;;;;3.14;47.55;101152.91;5034210;28;20124;-69
2021/01/05 05:35:39;;;;;;;14.90;7.53;;;;;;;3.10;47.76;101148.63;5048150;28;20057;-69
2021/01/05 05:38:11;;;;;;;12.15;6.68;;;;;;;3.12;47.83;101149.41;5032768;28;20069;-71
2021/01/05 05:40:43;;;;;;;;;;;;;;;2.91;48.35;101147.78;5023080;28;20046;-70
2021/01/05 05:43:22;;;;;;;11.75;6.22;;;;;;;3.12;47.73;101148.53;5033968;28;19940;-70
2021/01/05 05:45:56;;;;;;;12.80;6.50;;;;;;;3.16;47.70;101159.09;5032339;28;20060;-70
2021/01/05 05:48:35;;;;;;;12.60;6.60;;;;;;;3.19;47.61;101152.69;5034271;28;20041;-70
2021/01/05 05:51:08;;;;;;;15.80;7.35;;;;;;;3.19;47.83;101149.97;5047093;28;20065;-70
2021/01/05 05:53:42;;;;;;;13.20;7.20;;;;;;;3.20;47.76;101147.19;5032860;28;20047;-70
2021/01/05 05:56:15;;;;;;;12.65;6.78;;;;;;;3.22;47.51;101157.91;5025921;28;20034;-70
2021/01/05 05:58:46;;;;;;;12.00;6.03;;;;;;;3.22;47.62;101158.78;5038406;28;20500;-70
2021/01/05 06:01:21;;;;;;;14.10;7.25;;;;;;;3.25;47.66;101157.75;5025417;28;20039;-69
2021/01/05 06:03:49;;;;;;;12.38;6.72;;;;;;;3.24;47.70;101162.28;5032812;28;20025;-70
2021/01/05 06:06:17;;;;;;;11.57;6.97;;;;;;;3.25;47.90;101164.03;5028690;28;20049;-70
2021/01/05 06:08:44;;;;;;;14.00;7.55;;;;;;;3.26;47.42;101171.22;5031806;28;20034;-70
2021/01/05 06:11:11;;;;;;;12.98;6.82;;;;;;;3.26;47.61;101160.41;5030952;28;20069;-70
2021/01/05 06:13:39;;;;;;;12.88;6.90;;;;;;;3.27;47.48;101158.56;5029485;28;20038;-70
2021/01/05 06:16:06;;;;;;;11.82;7.00;;;;;;;3.27;47.79;101164.84;5030210;28;20420;-70
2021/01/05 06:18:34;;;;;;;13.60;7.63;;;;;;;3.28;47.54;101171.13;5032998;28;20045;-70
2021/01/05 06:21:02;;;;;;;14.55;7.88;;;;;;;3.25;47.67;101166.75;5027485;28;20038;-70
2021/01/05 06:23:30;;;;;;;14.65;8.15;;;;;;;3.26;47.58;101170.34;5025824;28;20042;-70
2021/01/05 06:25:57;;;;;;;13.73;7.18;;;;;;;3.26;47.41;101175.75;5031704;28;20045;-70
2021/01/05 06:28:25;;;;;;;12.55;7.00;;;;;;;3.26;47.77;101173.91;5026096;28;20042;-69
2021/01/05 06:30:55;;;;;;;14.50;7.57;;;;;;;3.27;47.47;101169.38;5046098;28;20099;-69
2021/01/05 06:33:23;;;;;;;14.35;7.30;;;;;;;3.25;47.80;101169.44;5030636;28;20034;-69
2021/01/05 06:35:51;;;;;;;14.15;7.38;;;;;;;3.30;47.57;101174.59;5031837;28;20508;-69
2021/01/05 06:38:18;;;;;;;13.55;7.00;;;;;;;3.28;47.63;101180.13;5028512;28;20056;-69
2021/01/05 06:40:46;;;;;;;14.90;6.97;;;;;;;3.29;47.41;101176.44;5027446;28;20037;-69
2021/01/05 06:43:13;;;;;;;14.07;7.50;;;;;;;3.30;47.56;101171.91;5029756;28;20038;-70
2021/01/05 06:45:41;;;;;;;14.63;7.93;;;;;;;3.29;47.52;101178.25;5027232;28;20041;-69
2021/01/05 06:48:10;;;;;;;13.52;7.45;;;;;;;3.28;47.45;101185.53;5028115;28;20045;-69
2021/01/05 06:50:37;;;;;;;14.85;7.72;;;;;;;3.30;47.66;101191.72;5027225;28;20127;-70
2021/01/05 06:53:05;;;;;;;13.27;7.47;;;;;;;3.30;47.67;101189.00;5031266;28;20041;-70
2021/01/05 06:55:33;;;;;;;15.15;7.85;;;;;;;3.29;47.52;101187.25;5032602;28;20071;-69
2021/01/05 06:58:00;;;;;;;15.18;7.68;;;;;;;3.27;47.76;101186.47;5031793;28;20049;-70
2021/01/05 07:00:31;;;;;;;15.18;8.30;;;;;;;3.28;47.48;101187.34;5031207;28;20064;-70
2021/01/05 07:02:59;;;;;;;15.80;8.35;;;;;;;3.26;47.61;101187.44;5031051;28;20045;-70
2021/01/05 07:05:27;;;;;;;14.57;8.43;;;;;;;3.26;47.58;101187.44;5027743;28;20052;-71
2021/01/05 07:07:54;;;;;;;14.15;7.72;;;;;;;3.27;47.59;101182.91;5024662;28;20583;-70
2021/01/05 07:10:22;;;;;;;13.85;7.50;;;;;;;3.28;47.64;101181.94;5028579;28;20057;-70
2021/01/05 07:12:50;;;;;;;15.60;7.82;;;;;;;3.26;47.34;101176.63;5029549;28;20049;-70
2021/01/05 07:15:19;;;;;;;16.52;7.97;;;;;;;3.28;47.82;101177.41;5028486;28;20042;-70
2021/01/05 07:17:46;;;;;;;14.10;7.45;;;;;;;3.27;47.66;101180.19;5026148;28;21195;-71
2021/01/05 07:20:15;;;;;;;13.57;6.82;;;;;;;3.29;47.62;101179.16;5025435;28;20076;-70
2021/01/05 07:22:42;;;;;;;14.00;7.10;;;;;;;3.29;48.05;101180.97;5029299;28;20157;-69
2021/01/05 07:25:13;;;;;;;14.80;7.65;;;;;;;3.31;48.07;101171.84;5026687;28;20045;-70
2021/01/05 07:27:42;;;;;;;13.15;6.93;;;;;;;3.33;48.02;101178.06;5027383;28;20064;-70
2021/01/05 07:30:10;;;;;;;16.35;8.48;;;;;;;3.35;47.65;101179.81;5026878;28;20080;-70
2021/01/05 07:32:37;;;;;;;16.00;8.23;;;;;;;3.35;47.87;101182.50;5029649;28;20033;-72
2021/01/05 07:35:06;;;;;;;16.23;7.80;;;;;;;3.37;47.77;101186.00;5028090;28;20469;-73
2021/01/05 07:37:39;;;;;;;14.40;7.38;;;;;;;3.40;47.89;101181.31;5021593;28;20064;-72
2021/01/05 07:40:08;;;;;;;18.55;8.68;;;;;;;3.38;47.90;101188.63;5029866;28;20052;-71
2021/01/05 07:42:35;;;;;;;16.38;8.35;;;;;;;3.39;48.03;101189.50;5029160;28;20037;-73
2021/01/05 07:45:09;;;;;;;14.15;7.85;;;;;;;3.43;47.54;101177.56;5027617;28;20113;-73
2021/01/05 07:47:38;;;;;;;16.52;8.82;;;;;;;3.43;47.88;101191.97;5024459;28;20053;-73
2021/01/05 07:50:08;;;;;;;13.73;7.00;;;;;;;3.45;47.53;101179.25;5025512;28;20112;-73
2021/01/05 07:52:37;;;;;;;13.23;7.20;;;;;;;3.46;47.94;101175.56;5028236;28;20095;-73
2021/01/05 07:55:07;;;;;;;14.88;7.80;;;;;;;3.48;47.79;101178.19;5027316;28;20112;-70
2021/01/05 07:57:34;;;;;;;15.80;8.23;;;;;;;3.48;47.97;101178.19;5029739;28;20044;-70
2021/01/05 08:00:02;;;;;;;14.57;7.85;;;;;;;3.48;47.92;101192.59;5023989;28;20524;-71
2021/01/05 08:02:40;;;;;;;15.70;7.85;;;;;;;3.50;47.54;101198.81;5028673;28;20053;-71
2021/01/05 08:05:08;;;;;;;17.17;8.38;;;;;;;3.50;47.93;101206.94;5029023;28;20068;-71
2021/01/05 08:07:35;;;;;;;14.70;7.63;;;;;;;3.51;47.81;101215.91;5029543;28;20079;-72
2021/01/05 08:10:03;;;;;;;15.10;7.63;;;;;;;3.51;47.59;101214.09;5029828;28;20037;-71
2021/01/05 08:12:31;;;;;;;13.93;7.68;;;;;;;3.50;47.63;101215.03;5028666;28;20136;-72
2021/01/05 08:14:58;;;;;;;15.25;7.75;;;;;;;3.51;47.73;101211.38;5027278;28;20400;-71
2021/01/05 08:17:25;;;;;;;13.13;7.20;;;;;;;3.51;47.58;101213.22;5029080;28;20049;-69
2021/01/05 08:19:53;;;;;;;14.15;7.53;;;;;;;3.52;47.56;101215.84;5026536;28;20053;-69
2021/01/05 08:22:21;;;;;;;15.23;7.85;;;;;;;3.50;47.79;101215.03;5030198;28;20412;-70
2021/01/05 08:24:48;;;;;;;13.60;7.18;;;;;;;3.52;47.46;101206.84;5030896;28;20041;-71
2021/01/05 08:27:16;;;;;;;16.08;7.65;;;;;;;3.51;47.75;101224.03;5026604;28;20048;-70
2021/01/05 08:29:43;;;;;;;14.02;7.47;;;;;;;3.51;47.70;101224.91;5022165;28;20484;-70
2021/01/05 08:32:10;;;;;;;16.50;7.97;;;;;;;3.50;47.55;101225.88;5028858;28;20049;-70
2021/01/05 08:34:38;;;;;;;13.43;7.28;;;;;;;3.51;47.82;101224.03;5026979;28;20045;-69
2021/01/05 08:37:06;;;;;;;14.20;6.78;;;;;;;3.51;47.61;101211.38;5030120;28;20046;-71
2021/01/05 08:39:33;;;;;;;17.33;8.45;;;;;;;3.47;47.75;101217.03;5030388;28;20045;-71
2021/01/05 08:42:01;;;;;;;15.23;8.55;;;;;;;3.47;47.55;101215.19;5025154;28;20061;-72
2021/01/05 08:44:28;;;;;;;14.95;6.93;;;;;;;3.49;47.71;101217.81;5031581;28;20048;-71
2021/01/05 08:46:59;;;;;;;16.38;7.72;;;;;;;3.50;47.69;101216.88;5028559;28;20044;-72
2021/01/05 08:49:27;;;;;;;15.35;7.97;;;;;;;3.47;47.87;101214.31;5022442;28;20116;-73
2021/01/05 08:51:55;;;;;;;17.48;9.13;;;;;;;3.47;47.72;101208.91;5029525;28;20033;-72
2021/01/05 08:54:23;;;;;;;15.70;7.25;;;;;;;3.47;47.77;101217.91;5030555;28;20042;-72
2021/01/05 08:56:54;;;;;;;15.30;7.65;;;;;;;3.49;47.71;101217.81;5030015;28;20037;-72
2021/01/05 08:59:21;;;;;;;13.52;7.38;;;;;;;3.46;47.75;101221.56;5022981;28;20488;-71
2021/01/05 09:01:49;;;;;;;16.80;8.30;;;;;;;3.45;47.71;101222.53;5030381;28;20420;-72
2021/01/05 09:04:16;;;;;;;16.00;8.00;;;;;;;3.45;47.73;101221.66;5032541;28;20037;-72
2021/01/05 09:06:47;;;;;;;17.38;9.57;;;;;;;3.46;47.83;101223.38;5023189;28;20052;-73
2021/01/05 09:09:15;;;;;;;14.13;7.70;;;;;;;3.43;47.87;101212.75;5033380;28;20124;-72
2021/01/05 09:11:43;;;;;;;17.58;8.15;;;;;;;3.44;47.98;101209.97;5027672;28;20496;-72
2021/01/05 09:14:11;;;;;;;15.68;8.60;;;;;;;3.43;47.61;101216.31;5025244;28;20083;-71
2021/01/05 09:16:40;;;;;;;17.00;8.27;;;;;;;3.42;47.68;101224.50;5030791;28;20120;-72
2021/01/05 09:19:07;;;;;;;17.35;8.45;;;;;;;3.42;48.03;101228.09;5025574;28;20134;-71
2021/01/05 09:21:34;;;;;;;18.30;9.10;;;;;;;3.41;47.90;101229.03;5050019;28;20449;-71
2021/01/05 09:24:02;;;;;;;17.20;8.63;;;;;;;3.41;47.83;101231.75;5048873;28;20041;-73
2021/01/05 09:26:32;;;;;;;16.67;9.10;;;;;;;3.40;48.01;101223.69;5031699;28;20042;-73
2021/01/05 09:29:02;;;;;;;14.32;7.65;;;;;;;3.43;47.95;101226.25;5026062;28;20552;-73
2021/01/05 09:31:29;;;;;;;13.75;7.88;;;;;;;3.41;47.82;101226.31;5048915;28;20053;-73
2021/01/05 09:33:56;;;;;;;15.32;8.63;;;;;;;3.40;47.92;101224.56;5045436;28;20045;-73
2021/01/05 09:36:30;;;;;;;15.38;7.65;;;;;;;3.44;48.03;101223.47;5032705;28;20049;-73
2021/01/05 09:38:58;;;;;;;13.65;7.00;;;;;;;3.40;47.91;101221.88;5031418;28;20044;-72
2021/01/05 09:41:28;;;;;;;14.38;7.43;;;;;;;3.43;48.03;101224.44;5037859;28;20408;-72
2021/01/05 09:43:56;;;;;;;15.02;7.80;;;;;;;3.42;47.98;101221.81;5050914;28;20038;-72
2021/01/05 09:46:25;;;;;;;17.00;8.55;;;;;;;3.41;47.88;101220.91;5043380;28;20052;-72
2021/01/05 09:48:52;;;;;;;15.20;7.70;;;;;;;3.42;47.73;101217.28;5059996;28;20095;-73
2021/01/05 09:51:23;;;;;;;14.05;7.72;;;;;;;3.45;48.05;101216.25;5035645;28;20056;-73
2021/01/05 09:54:11;;;;;;;16.05;8.25;;;;;;;3.40;48.01;101224.56;5035465;28;20489;-73
2021/01/05 09:56:38;;;;;;;15.23;8.10;;;;;;;3.43;47.81;101221.72;5035564;28;20045;-73
2021/01/05 09:59:05;;;;;;;14.60;8.18;;;;;;;3.41;47.93;101220.03;5026443;28;20045;-72
2021/01/05 10:01:35;;;;;;;14.35;7.50;;;;;;;3.45;47.97;101227.06;5033892;28;20041;-71
2021/01/05 10:04:03;;;;;;;16.00;7.97;;;;;;;3.45;48.09;101219.81;5034603;28;20033;-70
2021/01/05 10:06:34;;;;;;;15.30;8.20;;;;;;;3.44;47.80;101220.78;5034346;28;20116;-72
2021/01/05 10:09:08;;;;;;;16.40;8.05;;;;;;;3.44;47.74;101222.59;5034196;28;20053;-73
2021/01/05 10:11:38;;;;;;;15.18;8.90;;;;;;;3.44;48.24;101234.28;5035127;28;20037;-73
2021/01/05 10:14:06;;;;;;;16.20;8.18;;;;;;;3.45;47.97;101229.75;5030438;28;20133;-71
2021/01/05 10:16:34;;;;;;;13.10;7.10;;;;;;;3.47;48.04;101219.72;5033694;28;20131;-71
2021/01/05 10:19:05;;;;;;;18.02;9.50;;;;;;;3.44;48.12;101223.47;5033494;28;20116;-73
2021/01/05 10:21:34;;;;;;;17.17;8.70;;;;;;;3.46;48.10;101223.38;5034315;28;20068;-72
2021/01/05 10:24:02;;;;;;;19.55;9.43;;;;;;;3.46;48.00;101231.50;5036423;28;20045;-72
2021/01/05 10:26:30;;;;;;;18.05;8.23;;;;;;;3.46;48.34;101223.38;5032392;28;20128;-73
2021/01/05 10:28:57;;;;;;;15.63;9.00;;;;;;;3.46;48.26;101224.25;5028635;28;20115;-71
2021/01/05 10:31:25;;;;;;;19.20;9.50;;;;;;;3.46;48.09;101226.09;5030486;28;20049;-72
2021/01/05 10:33:53;;;;;;;17.15;8.75;;;;;;;3.48;48.07;101224.19;5030266;28;20436;-72
2021/01/05 10:36:23;;;;;;;17.27;8.50;;;;;;;3.48;48.07;101227.75;5028289;28;20381;-72
2021/01/05 10:39:06;;;;;;;16.77;8.55;;;;;;;3.48;48.04;101224.19;5029362;28;20041;-72
2021/01/05 10:41:36;;;;;;;14.98;7.93;;;;;;;3.50;48.10;101227.69;5037302;28;20041;-72
2021/01/05 10:44:04;;;;;;;15.82;8.40;;;;;;;3.50;48.23;101225.00;5030342;28;20033;-73
2021/01/05 10:46:32;;;;;;;15.52;7.68;;;;;;;3.51;48.19;101221.34;5027587;28;20049;-72
2021/01/05 10:49:00;;;;;;;15.15;8.18;;;;;;;3.52;48.05;101215.84;5026581;28;20124;-73
2021/01/05 10:51:28;;;;;;;13.57;7.28;;;;;;;3.53;48.45;101219.44;5032260;28;20041;-72
2021/01/05 10:53:55;;;;;;;14.48;7.10;;;;;;;3.55;48.44;101221.09;5031921;28;20056;-72
2021/01/05 10:56:24;;;;;;;15.35;7.15;;;;;;;3.57;48.18;101226.41;5032639;28;20107;-72
2021/01/05 10:58:51;;;;;;;17.20;8.13;;;;;;;3.56;48.18;101220.13;5028958;28;20411;-73
2021/01/05 11:01:19;;;;;;;20.65;8.95;;;;;;;3.58;48.23;101211.94;5031113;28;20053;-71
2021/01/05 11:03:46;;;;;;;16.40;8.32;;;;;;;3.59;47.93;101221.81;5032715;28;20540;-71
2021/01/05 11:06:15;;;;;;;14.52;7.07;;;;;;;3.60;47.85;101216.31;5030666;28;20045;-72
2021/01/05 11:08:42;;;;;;;16.00;7.70;;;;;;;3.60;48.18;101216.31;5038904;28;20121;-72
2021/01/05 11:11:16;;;;;;;17.60;8.90;;;;;;;3.63;48.20;101215.31;5027999;28;20124;-72
2021/01/05 11:13:43;;;;;;;17.23;8.77;;;;;;;3.60;47.93;101215.44;5023287;28;20374;-72
2021/01/05 11:16:10;;;;;;;15.18;7.60;;;;;;;3.61;47.96;101212.72;5033196;28;20064;-72
2021/01/05 11:18:40;;;;;;;14.60;8.63;;;;;;;3.60;47.87;101208.22;5031636;28;20069;-72
2021/01/05 11:21:10;;;;;;;17.67;9.00;;;;;;;3.61;47.98;101214.53;5031501;28;20047;-72
2021/01/05 11:23:38;;;;;;;16.05;8.45;;;;;;;3.60;47.77;101202.81;5026219;28;20049;-73
2021/01/05 11:26:07;;;;;;;15.88;8.02;;;;;;;3.59;47.98;101202.88;5024978;28;20127;-73
2021/01/05 11:28:51;;;;;;;16.85;8.85;;;;;;;3.56;47.93;101198.50;5029606;28;20053;-72
2021/01/05 11:31:18;;;;;;;15.50;7.70;;;;;;;3.56;48.10;101195.78;5030204;28;20049;-72
2021/01/05 11:33:45;;;;;;;16.98;7.95;;;;;;;3.58;47.87;101191.19;5030988;28;20051;-73
2021/01/05 11:36:24;;;;;;;17.83;8.98;;;;;;;3.58;47.79;101176.78;5031983;28;20052;-73
2021/01/05 11:38:54;;;;;;;16.90;8.35;;;;;;;3.56;48.11;101176.84;5030525;28;20420;-72
2021/01/05 11:41:27;;;;;;;14.15;7.68;;;;;;;3.58;48.29;101172.25;5024303;28;20059;-72
2021/01/05 11:43:55;;;;;;;16.52;8.95;;;;;;;3.54;48.09;101172.47;5029252;28;20045;-72
2021/01/05 11:46:24;;;;;;;17.40;8.48;;;;;;;3.56;47.98;101173.28;5024733;28;20539;-72
2021/01/05 11:48:52;;;;;;;14.32;7.75;;;;;;;3.55;48.22;101179.63;5024114;28;20041;-72
2021/01/05 11:51:21;;;;;;;15.95;8.48;;;;;;;3.54;48.18;101175.16;5026251;28;20128;-70
2021/01/05 11:53:49;;;;;;;15.25;8.30;;;;;;;3.55;48.34;101172.41;5008307;28;20425;-73
2021/01/05 11:56:21;;;;;;;16.90;8.05;;;;;;;3.59;48.07;101175.81;5030443;28;20116;-74
2021/01/05 11:58:49;;;;;;;18.52;9.07;;;;;;;3.55;48.13;101176.94;5045224;28;20045;-73